Date,TemperatureHighF,TemperatureAvgF,TemperatureLowF,DewpointHighF,DewpointAvgF,DewpointLowF,HumidityHigh,HumidityAvg,HumidityLow,PressureMaxIn,PressureMinIn,WindSpeedMaxMPH,WindSpeedAvgMPH,GustSpeedMaxMPH,PrecipitationSumIn
2014-1-1,48.9,33.3,24.6,99.9,99.9,99.9,0,0,100,29.91,29.91,0,0,0,0.00
2014-1-2,44.1,35.1,20.7,99.9,99.9,99.9,0,0,100,29.91,29.91,0,0,0,0.00
2014-1-3,33.3,22.2,14.0,99.9,99.9,99.9,0,0,100,29.91,29.91,0,0,0,0.00
2014-1-4,42.4,29.2,15.4,99.9,99.9,99.9,0,0,100,29.91,29.91,0,0,0,0.00
2014-1-5,53.8,46.2,37.6,99.9,99.9,99.9,0,0,100,29.91,29.91,0,0,0,0.00
2014-1-6,49.1,20.2,4.8,99.9,99.9,99.9,0,0,100,29.91,29.91,0,0,0,0.00
2014-1-7,24.4,11.1,0.7,99.9,99.9,99.9,0,0,100,29.91,29.91,0,0,0,0.00
2014-1-8,45.9,23.6,9.1,99.9,99.9,99.9,0,0,100,29.91,29.91,0,0,0,0.00
2014-1-9,51.6,33.8,21.2,99.9,99.9,99.9,0,0,100,29.91,29.91,0,0,0,0.00
2014-1-10,54.9,47.3,39.2,99.9,99.9,99.9,0,0,100,29.91,29.91,0,0,0,0.00
2014-1-11,60.4,53.2,37.9,99.9,99.9,99.9,0,0,100,29.91,29.91,0,0,0,0.00
2014-1-12,54.0,37.2,27.5,99.9,99.9,99.9,0,0,100,29.91,29.91,0,0,0,0.00
2014-1-13,52.3,38.3,27.0,99.9,99.9,99.9,0,0,100,29.91,29.91,0,0,0,0.00
2014-1-14,53.6,43.5,30.2,99.9,99.9,99.9,0,0,100,29.91,29.91,0,0,0,0.00
2014-1-15,42.3,33.4,27.3,99.9,99.9,99.9,0,0,100,29.91,29.91,0,0,0,0.00
2014-1-16,39.7,28.0,18.3,99.9,99.9,99.9,0,0,100,29.91,29.91,0,0,0,0.00
2014-1-17,46.2,32.5,25.7,99.9,99.9,99.9,0,0,100,29.91,29.91,0,0,0,0.00
2014-1-18,37.0,28.1,18.5,99.9,99.9,99.9,0,0,100,29.91,29.91,0,0,0,0.00
2014-1-19,46.0,34.2,25.4,99.9,64.8,22.9,90,33,49,30.06,29.91,7,1,16,0.03
2014-1-20,58.4,34.9,19.6,31.3,25.4,17.9,93,74,33,30.06,29.88,6,1,12,0.07
2014-1-21,42.7,29.4,18.0,33.8,25.9,12.5,96,87,68,29.99,29.70,13,3,20,0.05
2014-1-22,29.9,19.5,11.1,23.9,13.6,5.6,79,78,74,30.18,30.00,9,1,16,0.00
2014-1-23,30.9,20.1,12.6,24.8,14.4,7.0,78,78,78,30.34,30.17,0,0,0,0.00
2014-1-24,27.2,14.5,4.9,8.5,3.9,-0.4,79,65,34,30.53,30.30,2,0,12,0.00
2014-1-25,30.6,19.4,6.5,21.4,12.5,3.0,87,75,47,30.28,29.89,1,0,7,0.00
2014-1-26,51.1,29.8,14.6,45.5,24.7,9.9,81,81,81,30.00,29.87,0,0,5,0.00
2014-1-27,51.0,35.0,26.0,45.4,26.0,4.9,81,71,39,30.12,29.78,6,1,15,0.01
2014-1-28,24.8,22.1,17.9,5.5,3.5,-0.4,44,44,42,30.19,30.10,3,0,17,0.00
2014-1-29,30.6,18.1,8.6,11.3,-0.2,-8.9,44,44,44,30.18,30.07,0,0,0,0.00
2014-1-30,39.7,18.9,2.4,19.6,0.5,-14.5,44,44,44,30.22,30.01,0,0,0,0.00
2014-1-31,50.9,28.8,15.4,29.8,9.6,-2.6,44,44,44,30.12,30.03,0,0,0,0.00
2014-2-1,63.4,35.3,21.2,41.1,19.4,2.6,88,54,44,30.10,29.95,0,0,3,0.00
2014-2-2,54.2,40.1,27.1,50.8,36.9,24.0,88,88,88,30.11,29.85,0,0,0,0.00
2014-2-3,58.5,48.9,38.9,55.0,45.5,35.6,88,88,88,30.08,29.72,0,0,0,0.00
2014-2-4,56.8,44.9,34.7,53.3,41.5,31.5,88,88,88,30.12,29.85,0,0,0,0.00
2014-2-5,54.2,46.0,31.6,50.7,42.7,28.5,88,88,88,30.12,29.75,0,0,0,0.00
2014-2-6,37.0,30.3,26.4,33.8,27.2,23.3,88,88,88,30.20,30.09,0,0,0,0.00
2014-2-7,44.5,33.9,28.1,41.2,29.9,25.0,88,85,63,30.24,30.12,0,0,5,0.00
2014-2-8,44.9,36.9,31.0,35.1,31.4,27.0,88,81,67,30.24,30.11,0,0,6,0.00
2014-2-9,44.8,37.2,30.3,40.6,33.1,26.3,85,85,85,30.16,29.98,0,0,0,0.00
2014-2-10,37.8,35.2,31.5,33.7,31.1,27.5,85,85,85,30.06,29.96,0,0,0,0.00
2014-2-11,38.1,34.2,30.7,34.0,30.2,26.7,85,85,85,30.13,30.04,0,0,0,0.00
2014-2-12,32.8,31.7,30.4,28.8,27.7,26.4,85,85,85,30.11,29.68,0,0,0,0.00
2014-2-13,37.7,32.4,26.7,33.6,28.4,22.8,85,85,85,29.75,29.55,0,0,0,0.00
2014-2-14,49.5,34.0,20.7,45.2,30.0,16.9,85,85,85,29.79,29.59,0,0,0,0.00
2014-2-15,39.8,34.5,30.8,35.6,30.5,26.8,85,85,85,30.00,29.55,0,0,0,0.00
2014-2-16,55.4,37.2,27.2,48.8,30.8,23.2,91,79,37,30.13,29.94,5,0,16,0.00
2014-2-17,57.8,41.2,26.3,42.7,32.6,25.2,97,76,42,30.24,30.04,5,1,20,0.15
2014-2-18,62.8,47.3,34.4,44.6,38.4,30.0,98,76,29,30.19,30.01,1,0,8,0.04
2014-2-19,67.7,56.6,48.3,60.4,52.3,46.9,97,87,57,30.01,29.90,9,1,15,0.10
2014-2-20,68.7,58.9,46.7,57.4,52.5,45.6,96,81,65,30.00,29.76,6,2,22,0.00
2014-2-21,65.3,56.1,46.0,56.4,40.5,18.1,73,59,23,29.93,29.67,9,2,21,0.00
2014-2-22,64.1,50.8,32.3,34.2,27.5,13.9,93,47,14,30.18,30.02,5,1,13,0.00
2014-2-23,68.2,47.9,32.5,38.1,32.4,27.5,88,63,23,30.07,29.85,7,1,17,0.00
2014-2-24,54.6,43.0,30.8,37.6,30.3,23.0,91,66,30,30.10,29.92,9,2,20,0.00
2014-2-25,56.8,40.2,29.0,46.7,31.0,25.5,89,74,36,30.06,29.91,8,1,17,0.00
2014-2-26,41.8,34.1,26.9,38.2,30.7,23.6,87,87,87,29.92,29.77,0,0,4,0.00
2014-2-27,47.5,28.3,15.9,33.4,17.2,8.7,87,70,24,29.98,29.79,9,1,21,0.00
2014-2-28,52.9,34.8,16.7,24.5,16.9,13.6,90,56,22,30.19,30.00,5,1,12,0.00
2014-3-1,56.2,45.7,36.4,41.5,35.8,24.7,92,70,45,30.25,30.14,1,0,14,0.00
2014-3-2,66.9,53.6,45.4,61.6,47.5,40.5,83,80,59,30.18,29.87,2,0,9,0.00
2014-3-3,56.2,45.7,32.6,51.7,42.0,30.5,95,87,83,30.11,29.68,8,1,15,0.03
2014-3-4,44.6,36.8,30.5,42.7,35.0,28.7,93,93,93,30.17,30.08,3,0,5,0.00
2014-3-5,60.8,43.2,32.4,51.8,38.1,30.6,93,84,45,30.13,29.92,6,0,12,0.00
2014-3-6,53.1,41.1,31.4,49.8,32.6,17.2,93,78,24,30.10,29.94,1,0,9,0.00
2014-3-7,60.0,47.4,38.8,45.8,34.9,25.0,90,63,50,29.97,29.84,5,1,9,0.00
2014-3-8,65.1,46.9,31.2,42.0,35.1,30.0,97,70,29,30.11,29.99,9,2,18,0.00
2014-3-9,64.3,42.9,33.5,48.6,34.1,28.0,80,73,42,30.09,30.01,8,1,15,0.00
2014-3-10,66.8,51.6,33.1,44.2,32.2,9.0,87,49,36,30.05,29.86,10,2,18,0.00
2014-3-11,73.4,52.1,32.1,48.4,40.8,31.1,97,71,35,29.90,29.68,7,1,20,0.00
2014-3-12,65.2,50.4,35.2,56.1,44.5,24.6,85,80,65,29.86,29.36,13,2,23,0.01
2014-3-13,43.5,34.7,28.1,25.7,20.3,14.0,77,58,31,30.25,29.89,12,3,20,0.00
2014-3-14,62.3,40.2,22.8,49.5,25.7,18.1,82,63,23,30.27,30.04,8,1,18,0.00
2014-3-15,65.6,50.5,33.7,49.0,35.2,19.2,83,56,42,30.06,29.94,5,0,12,0.00
2014-3-16,54.0,48.0,43.1,52.2,45.7,39.7,98,92,84,29.98,29.59,1,0,9,0.21
2014-3-17,53.1,50.4,48.0,52.3,49.6,47.2,97,97,97,29.75,29.57,0,0,2,0.00
2014-3-18,61.8,49.2,42.7,51.0,44.6,40.6,97,86,57,29.95,29.71,7,1,16,0.00
2014-3-19,59.0,46.9,35.6,47.3,42.2,34.8,98,85,58,30.08,29.96,9,1,17,0.00
2014-3-20,58.6,48.8,35.7,46.0,34.0,20.9,93,64,24,30.07,29.98,9,2,20,0.00
2014-3-21,66.6,45.5,26.2,37.2,28.5,23.6,96,61,20,30.16,30.00,3,1,16,0.00
2014-3-22,68.8,51.7,34.8,45.8,40.1,32.4,91,68,41,30.05,29.94,6,1,14,0.00
2014-3-23,51.2,46.3,40.3,48.7,43.9,37.9,91,91,90,30.12,29.90,0,0,1,0.00
2014-3-24,56.7,40.6,26.1,51.1,31.9,23.8,91,76,28,30.15,29.91,6,0,12,0.00
2014-3-25,41.1,35.4,29.1,37.3,28.3,11.4,96,77,47,30.16,29.88,6,2,20,0.13
2014-3-26,47.5,33.9,24.4,22.7,13.9,6.3,80,47,22,30.32,30.16,10,2,17,0.00
2014-3-27,61.5,44.1,24.5,32.8,23.5,16.9,87,52,23,30.34,30.14,8,2,20,0.00
2014-3-28,56.2,53.8,51.4,55.1,45.2,32.8,97,74,51,30.16,29.99,2,0,20,0.03
2014-3-29,59.7,52.2,41.6,58.2,49.6,35.9,99,91,74,29.99,29.66,14,2,24,0.27
2014-3-30,53.6,43.0,35.7,44.6,34.4,31.0,88,73,42,30.11,29.92,5,1,17,0.00
2014-3-31,75.8,49.5,27.1,42.4,32.9,21.4,97,63,13,30.20,30.03,5,1,13,0.00
2014-4-1,78.0,54.6,38.7,55.8,41.8,36.0,90,69,28,30.12,29.97,10,1,16,0.00
2014-4-2,80.8,58.3,36.8,48.0,39.3,32.7,89,58,18,30.08,29.95,6,1,14,0.00
2014-4-3,78.0,63.3,51.6,58.2,51.5,44.7,84,67,42,30.02,29.82,10,2,20,0.00
2014-4-4,65.4,57.4,49.2,61.5,53.5,45.5,94,87,80,29.88,29.74,3,0,13,0.00
2014-4-5,64.9,51.7,40.4,51.9,42.1,33.2,92,74,31,29.99,29.87,5,1,13,0.00
2014-4-6,64.1,50.4,37.9,49.2,40.1,33.8,93,71,39,30.00,29.88,6,1,13,0.05
2014-4-7,62.3,54.7,48.8,56.1,52.4,48.2,98,92,79,29.90,29.57,9,2,21,2.16
2014-4-8,54.5,49.7,42.0,49.4,42.0,37.9,91,76,54,29.76,29.66,9,2,21,0.00
2014-4-9,60.9,50.2,42.0,43.9,39.6,32.7,95,71,36,30.11,29.77,7,1,20,0.00
2014-4-10,73.0,50.7,31.6,44.0,36.4,30.1,94,66,28,30.24,30.08,6,1,15,0.00
2014-4-11,73.3,55.0,37.7,47.9,40.8,31.9,97,66,22,30.20,30.04,9,2,22,0.00
2014-4-12,80.2,61.7,43.7,53.8,48.3,39.5,96,66,36,30.16,29.98,3,1,15,0.00
2014-4-13,76.7,61.8,45.8,69.9,52.5,41.8,86,74,48,30.07,29.92,6,1,16,0.00
2014-4-14,68.1,63.5,59.7,60.3,56.1,50.8,95,78,63,29.89,29.71,6,1,18,0.41
2014-4-15,60.0,47.6,35.7,58.2,43.3,27.5,97,85,68,30.02,29.59,12,4,22,0.40
2014-4-16,62.9,43.8,28.1,34.6,27.3,22.8,91,59,22,30.28,30.06,5,1,14,0.00
2014-4-17,66.7,45.5,29.1,52.8,33.4,25.8,88,70,22,30.36,30.23,6,1,13,0.00
2014-4-18,60.9,50.3,42.4,49.0,42.6,39.3,94,77,49,30.29,30.11,2,0,7,0.03
2014-4-19,64.2,54.2,48.2,52.8,47.9,44.8,98,81,54,30.13,30.04,5,1,20,0.10
2014-4-20,76.5,56.2,38.4,59.2,45.2,36.8,94,73,25,30.19,30.03,8,1,14,0.00
2014-4-21,76.9,56.5,39.3,60.3,44.5,33.3,80,68,33,30.10,29.86,9,1,17,0.00
2014-4-22,64.2,55.6,47.6,62.4,53.5,46.0,94,93,84,29.88,29.76,0,0,1,0.00
2014-4-23,71.1,55.6,42.1,57.9,41.2,26.4,94,68,20,29.91,29.81,13,2,18,0.00
2014-4-24,75.1,58.3,34.6,47.4,38.5,32.7,93,55,23,30.01,29.85,7,2,13,0.00
2014-4-25,70.3,63.9,48.4,57.9,51.8,44.8,93,66,47,29.91,29.72,12,3,25,0.00
2014-4-26,81.4,59.4,40.5,51.5,44.2,36.5,97,66,21,29.99,29.86,9,1,14,0.00
2014-4-27,82.4,62.5,44.3,61.7,51.0,42.1,92,71,35,29.95,29.79,9,1,17,0.00
2014-4-28,79.2,67.9,56.7,63.8,59.9,55.6,96,78,53,29.88,29.69,7,1,15,0.01
2014-4-29,76.3,69.6,61.2,64.8,61.1,56.0,83,75,61,29.78,29.61,8,2,23,0.19
2014-4-30,71.9,65.6,58.4,63.8,60.2,57.3,96,84,61,29.84,29.72,7,1,22,0.05
2014-5-1,63.0,56.6,46.7,57.2,47.1,39.1,96,74,43,29.92,29.83,8,3,18,0.02
2014-5-2,66.9,52.1,39.9,45.8,41.3,38.6,97,72,38,29.96,29.84,10,2,18,0.00
2014-5-3,73.2,56.7,38.5,48.2,43.9,36.9,95,67,35,30.00,29.89,10,2,23,0.01
2014-5-4,82.2,60.7,40.9,53.6,46.9,38.7,92,67,31,30.05,29.90,9,2,18,0.01
2014-5-5,84.2,63.2,45.9,75.7,52.7,41.6,87,73,29,29.96,29.79,9,1,21,0.00
2014-5-6,85.2,66.3,48.7,61.9,51.6,43.2,96,66,23,29.94,29.82,8,1,20,0.00
2014-5-7,85.4,66.1,48.3,68.8,53.2,45.5,90,68,34,30.04,29.93,6,1,13,0.00
2014-5-8,83.4,66.6,47.6,61.5,54.7,46.2,97,70,39,30.16,30.04,6,1,15,0.00
2014-5-9,75.8,64.5,57.0,63.2,59.7,55.2,97,86,62,30.08,29.97,6,1,26,0.59
2014-5-10,69.0,62.0,57.9,64.4,60.3,56.5,98,94,76,30.07,29.99,1,0,16,0.29
2014-5-11,85.4,66.8,50.2,66.3,59.2,49.4,98,80,45,30.11,29.99,3,0,12,0.00
2014-5-12,82.6,69.3,55.9,70.3,63.7,55.1,98,84,60,30.12,30.02,3,0,10,0.00
2014-5-13,83.6,70.2,59.3,68.8,63.6,58.4,98,82,48,30.09,29.99,5,1,17,0.00
2014-5-14,79.7,67.7,56.9,65.2,60.2,55.8,96,79,53,30.07,29.85,6,1,16,0.23
2014-5-15,65.6,58.1,47.5,62.7,55.9,45.9,98,92,81,30.00,29.80,9,1,18,0.57
2014-5-16,58.7,49.2,39.2,48.8,43.4,36.2,92,81,63,30.10,29.96,12,1,30,0.03
2014-5-17,57.0,47.2,35.7,50.4,43.7,34.7,97,88,68,30.21,30.10,2,0,8,0.01
2014-5-18,59.0,51.8,46.8,55.2,50.1,45.7,98,94,86,30.19,30.14,1,0,7,0.01
2014-5-19,73.8,57.5,39.7,56.6,48.9,39.0,99,77,45,30.25,30.13,5,1,12,0.00
2014-5-20,77.9,62.7,46.8,62.8,55.4,45.7,98,80,53,30.23,30.07,5,1,13,0.00
2014-5-21,80.3,65.5,50.8,64.2,57.6,50.0,97,79,49,30.12,29.98,9,2,20,0.00
2014-5-22,81.0,68.3,55.2,70.0,62.1,54.4,98,82,61,30.07,29.95,8,1,18,0.00
2014-5-23,83.6,68.9,55.9,69.2,62.3,54.8,98,82,51,30.02,29.93,3,0,16,0.00
2014-5-24,79.3,66.3,57.5,72.1,60.8,55.5,94,84,48,30.03,29.96,0,0,7,0.00
2014-5-25,78.5,63.5,52.3,68.1,59.1,50.9,96,87,56,30.10,30.03,7,0,13,0.13
2014-5-26,82.0,67.2,55.7,69.5,61.8,54.2,95,84,54,30.15,30.01,6,1,12,0.00
2014-5-27,81.3,68.5,59.4,69.3,62.7,58.3,96,83,59,30.08,29.94,3,1,17,0.00
2014-5-28,84.1,70.2,58.7,68.0,62.2,56.9,94,78,50,30.01,29.88,3,1,16,0.25
2014-5-29,81.9,68.9,57.3,72.0,64.1,56.2,97,86,65,29.99,29.92,1,0,12,0.00
2014-5-30,81.8,68.7,61.5,70.9,64.8,60.4,97,88,63,30.02,29.96,2,0,13,0.14
2014-5-31,83.6,69.0,58.4,71.2,65.3,57.5,98,89,63,30.06,29.99,1,0,9,0.02
2014-6-1,77.4,68.9,61.3,69.5,63.3,58.3,98,84,56,30.16,30.07,2,0,9,0.00
2014-6-2,78.9,65.7,53.4,64.1,58.6,51.7,94,79,59,30.18,30.03,3,0,9,0.00
2014-6-3,80.6,67.0,54.4,71.5,62.2,53.4,98,86,68,30.09,29.93,1,0,7,0.00
2014-6-4,84.7,69.4,58.9,74.7,64.7,57.2,95,86,58,29.96,29.75,7,1,12,0.01
2014-6-5,76.3,71.2,66.8,70.0,68.4,65.9,97,91,75,29.81,29.70,1,0,12,0.02
2014-6-6,83.3,72.8,66.0,71.8,67.3,64.9,97,84,65,29.87,29.79,2,0,12,0.00
2014-6-7,84.6,72.1,60.3,70.6,65.6,59.2,98,82,58,29.91,29.82,1,0,9,0.00
2014-6-8,80.0,70.6,64.4,69.0,66.1,62.7,98,87,67,29.87,29.80,9,1,17,1.85
2014-6-9,80.3,68.7,58.4,69.8,64.3,57.6,98,87,68,29.89,29.81,2,0,12,0.00
2014-6-10,81.7,69.0,61.4,72.0,65.8,60.5,98,90,71,29.92,29.82,0,0,21,0.42
2014-6-11,79.7,70.5,63.2,69.3,65.7,62.1,97,86,64,29.85,29.72,8,1,12,1.36
2014-6-12,79.1,68.9,61.1,70.5,65.6,60.6,98,90,74,29.84,29.75,1,0,8,0.44
2014-6-13,77.5,66.8,60.0,69.8,63.8,59.5,98,91,68,29.89,29.80,2,0,13,0.18
2014-6-14,83.7,69.9,57.1,71.7,64.1,56.2,97,83,56,29.96,29.89,2,0,9,0.00
2014-6-15,85.0,71.9,62.2,73.9,67.3,61.1,98,87,58,30.07,29.96,5,0,12,0.12
2014-6-16,85.0,72.6,65.6,74.6,69.1,65.0,98,90,64,30.12,30.05,2,0,7,0.16
2014-6-17,88.0,74.8,61.5,74.8,68.0,60.9,99,82,52,30.14,30.01,3,0,8,0.00
2014-6-18,85.0,72.0,63.0,72.4,67.5,61.8,96,87,63,30.09,30.03,2,0,12,0.00
2014-6-19,86.1,71.5,61.3,75.6,67.3,60.4,98,88,65,30.09,30.02,1,0,9,0.20
2014-6-20,87.0,72.8,59.3,73.0,66.9,58.5,98,84,58,30.04,29.88,3,0,9,0.00
2014-6-21,84.4,71.1,63.4,72.2,66.7,62.3,96,87,59,29.91,29.82,5,0,17,0.08
2014-6-22,86.3,73.9,61.2,71.5,66.6,60.3,98,80,54,29.89,29.77,2,0,9,0.00
2014-6-23,86.1,74.3,61.3,71.8,66.7,59.8,98,79,55,29.97,29.85,2,0,12,0.00
2014-6-24,81.9,72.0,66.7,75.1,68.7,65.5,96,90,74,29.99,29.89,3,0,15,0.50
2014-6-25,83.8,73.4,67.5,73.5,69.5,66.3,97,89,69,29.98,29.89,6,1,13,0.02
2014-6-26,85.6,73.8,60.9,72.1,66.7,59.8,98,81,52,30.00,29.86,2,0,10,0.01
2014-6-27,82.3,72.3,67.6,72.6,68.5,65.8,94,88,72,30.02,29.92,5,0,9,0.03
2014-6-28,78.9,71.2,64.1,77.3,69.7,62.6,95,95,95,30.15,30.03,0,0,1,0.00
2014-6-29,80.7,70.3,64.2,79.2,68.8,62.7,95,95,95,30.20,30.10,0,0,0,0.00
2014-6-30,77.4,69.7,64.9,75.9,68.2,63.4,95,95,95,30.11,29.95,0,0,0,0.00
2014-7-1,86.3,75.4,67.3,84.7,73.8,65.8,95,95,95,29.99,29.89,0,0,0,0.00
2014-7-2,87.3,75.6,65.8,85.6,74.1,64.3,95,95,95,29.98,29.92,0,0,0,0.00
2014-7-3,80.7,72.4,63.3,79.1,70.8,61.9,95,95,95,30.02,29.93,0,0,0,0.00
2014-7-4,78.1,67.6,55.6,76.6,66.1,54.2,95,95,95,30.16,30.03,0,0,0,0.00
2014-7-5,81.5,66.8,52.9,79.9,65.4,51.5,95,95,95,30.22,30.13,0,0,0,0.00
2014-7-6,82.1,68.1,53.8,80.5,66.6,52.4,95,95,95,30.16,30.01,0,0,0,0.00
2014-7-7,83.5,70.9,59.7,81.9,69.4,58.3,95,95,95,30.05,29.94,0,0,0,0.00
2014-7-8,81.5,68.6,58.9,79.9,67.1,57.5,95,95,95,30.06,29.94,0,0,0,0.00
2014-7-9,81.8,71.3,65.7,80.2,69.8,64.2,95,95,95,30.03,29.94,0,0,0,0.00
2014-7-10,82.0,72.8,64.9,80.4,71.2,63.5,95,95,95,30.09,30.00,0,0,0,0.00
2014-7-11,85.8,73.0,61.4,84.2,71.5,60.0,95,95,95,30.18,30.07,0,0,0,0.00
2014-7-12,83.9,71.9,65.7,76.0,69.0,64.3,95,91,73,30.18,30.04,2,0,8,0.01
2014-7-13,87.2,74.4,64.4,76.1,68.6,62.6,94,83,57,30.08,29.92,3,0,10,0.01
2014-7-14,86.3,75.6,66.7,77.4,70.6,65.8,98,86,63,29.97,29.82,3,0,12,0.00
2014-7-15,80.7,72.3,63.8,71.6,68.7,62.0,97,89,71,29.86,29.72,5,0,14,0.01
2014-7-16,78.8,65.5,54.0,62.3,57.2,52.9,96,78,45,29.90,29.81,3,0,12,0.01
2014-7-17,80.8,65.9,52.8,66.7,59.3,51.4,95,81,56,29.99,29.91,0,0,8,0.00
2014-7-18,69.6,64.9,61.9,68.3,63.6,60.5,97,96,92,30.07,29.97,1,0,4,0.00
2014-7-19,71.2,66.9,64.1,69.1,65.7,63.2,98,96,91,30.05,29.97,1,0,9,0.00
2014-7-20,82.6,72.0,64.8,73.9,68.8,64.2,99,90,74,30.02,29.91,3,0,8,0.01
2014-7-21,84.7,73.8,66.1,74.7,69.5,64.9,98,88,59,30.02,29.93,2,0,10,0.00
2014-7-22,80.7,72.0,63.0,74.2,68.4,61.9,96,89,79,30.06,29.97,0,0,5,0.00
2014-7-23,84.8,72.4,65.1,74.0,68.7,63.9,98,89,69,30.05,29.90,3,0,14,0.01
2014-7-24,82.7,73.9,65.0,73.9,69.2,64.1,99,86,70,29.93,29.81,6,1,14,0.01
2014-7-25,82.2,71.6,61.4,75.0,64.8,54.9,79,79,79,29.99,29.88,0,0,0,0.00
2014-7-26,83.7,70.0,57.7,76.5,63.2,51.2,79,79,79,30.03,29.95,0,0,0,0.00
2014-7-27,86.1,73.8,64.0,78.8,66.9,57.4,79,79,79,30.02,29.86,0,0,0,0.00
2014-7-28,79.0,73.4,63.6,71.9,66.5,57.0,79,79,79,29.93,29.87,0,0,0,0.00
2014-7-29,74.6,64.4,54.1,67.7,57.8,47.7,79,79,79,30.02,29.92,0,0,0,0.00
2014-7-30,76.1,60.9,48.0,69.1,54.4,41.8,79,79,79,30.05,30.00,0,0,0,0.00
2014-7-31,73.9,64.4,55.9,66.9,57.7,49.5,79,79,79,30.08,30.03,0,0,0,0.00
2014-8-1,79.2,68.9,60.1,72.2,62.1,53.5,79,79,79,30.06,29.99,0,0,0,0.00
2014-8-2,77.2,69.3,63.6,70.2,62.5,56.9,79,79,79,30.07,30.01,0,0,0,0.00
2014-8-3,82.1,68.9,59.5,74.9,62.1,53.0,79,79,79,30.10,29.99,0,0,0,0.00
2014-8-4,80.9,71.1,62.8,73.8,64.3,56.2,79,79,79,30.07,29.98,0,0,0,0.00
2014-8-5,81.6,69.7,60.2,74.5,62.9,53.7,79,79,79,30.07,30.00,0,0,0,0.00
2014-8-6,82.2,68.4,55.7,75.1,61.7,49.3,79,79,79,30.05,29.95,0,0,0,0.00
2014-8-7,85.8,72.1,61.1,78.6,65.2,54.5,79,79,79,30.02,29.94,0,0,0,0.00
2014-8-8,76.7,68.9,65.1,69.7,62.2,58.4,79,79,79,30.08,29.97,0,0,0,0.00
2014-8-9,83.1,72.8,65.2,76.0,65.9,58.5,79,79,79,30.04,29.92,0,0,0,0.00
2014-8-10,79.2,72.1,67.4,72.1,65.2,60.7,79,79,79,30.02,29.94,0,0,0,0.00
2014-8-11,82.0,74.0,67.7,74.9,67.1,61.0,79,79,79,30.01,29.87,0,0,0,0.00
2014-8-12,82.3,73.4,66.2,75.1,66.5,59.5,79,79,79,29.94,29.79,0,0,0,0.00
2014-8-13,75.9,67.5,56.8,69.0,60.7,50.3,79,79,79,30.00,29.89,0,0,0,0.00
2014-8-14,79.8,68.1,55.6,72.7,61.3,49.2,79,79,79,30.04,29.94,0,0,0,0.00
2014-8-15,80.8,68.0,54.6,73.7,61.2,48.3,79,79,79,30.03,29.94,0,0,0,0.00
2014-8-16,80.4,67.1,54.6,73.2,60.3,48.3,79,79,79,30.04,29.98,0,0,0,0.00
2014-8-17,76.0,65.6,59.6,69.0,58.9,53.1,79,79,79,30.04,29.95,0,0,0,0.00
2014-8-18,79.4,70.4,66.5,72.3,63.6,59.7,79,79,79,29.97,29.83,0,0,0,0.00
2014-8-19,83.1,71.2,64.7,75.9,64.4,58.0,79,79,79,29.88,29.84,0,0,0,0.00
2014-8-20,84.2,70.1,63.1,77.0,63.2,56.5,79,79,79,29.88,29.88,0,0,0,0.00
2014-8-21,84.2,72.1,60.8,77.0,65.3,54.2,79,79,79,30.14,29.88,0,0,0,0.00
2014-8-22,85.4,72.1,64.0,78.1,65.2,57.4,79,79,79,30.11,29.98,0,0,0,0.00
2014-8-23,85.8,72.4,63.7,78.6,65.5,57.1,79,79,79,30.03,29.91,0,0,0,0.00
2014-8-24,78.4,71.0,64.7,71.4,64.2,58.1,79,79,79,29.98,29.91,0,0,0,0.00
2014-8-25,81.8,73.2,67.1,74.6,66.3,60.4,79,79,79,30.07,29.98,0,0,0,0.00
2014-8-26,81.4,68.5,57.9,74.3,61.7,51.4,79,79,79,30.13,30.01,0,0,0,0.00
2014-8-27,83.8,69.8,58.5,76.6,62.9,52.1,79,79,79,30.09,29.99,0,0,0,0.00
2014-8-28,85.9,71.4,57.9,78.6,64.5,51.4,79,79,79,30.05,29.95,0,0,0,0.00
2014-8-29,87.0,72.7,61.6,79.7,65.8,55.0,79,79,79,30.08,30.02,0,0,0,0.00
2014-8-30,83.5,71.5,60.4,76.3,64.6,53.9,79,79,79,30.14,30.04,0,0,0,0.00
2014-8-31,81.5,73.2,66.2,74.4,66.3,59.5,79,79,79,30.14,30.06,0,0,0,0.00
2014-9-1,84.6,74.5,66.7,77.4,67.6,60.0,79,79,79,30.12,30.03,0,0,0,0.00
2014-9-2,85.9,75.2,65.0,78.6,68.3,58.3,79,79,79,30.09,29.95,0,0,0,0.00
2014-9-3,84.8,73.5,66.8,77.5,66.6,60.0,79,79,79,30.08,29.97,0,0,0,0.00
2014-9-4,80.2,72.6,66.6,73.1,65.6,59.9,79,79,79,30.15,30.07,0,0,0,0.00
2014-9-5,83.6,71.9,64.5,76.4,65.1,57.8,79,79,79,30.18,30.07,0,0,0,0.00
2014-9-6,80.7,70.8,63.6,73.6,64.0,57.0,79,79,79,30.10,29.95,0,0,0,0.00
2014-9-7,82.3,70.8,62.9,75.2,63.9,56.2,79,79,79,30.01,29.94,0,0,0,0.00
2014-9-8,81.1,70.1,63.3,73.9,63.3,56.7,79,79,79,30.05,29.99,0,0,0,0.00
2014-9-9,81.5,71.7,66.0,74.4,64.9,59.3,79,79,79,30.11,29.99,0,0,0,0.00
2014-9-10,78.8,70.5,63.5,71.7,63.7,56.9,79,79,79,30.09,29.98,0,0,0,0.00
2014-9-11,78.8,71.1,64.6,71.7,64.3,58.0,79,79,79,30.04,29.96,0,0,0,0.00
2014-9-12,81.9,72.1,66.3,74.8,65.2,59.6,79,79,79,30.05,29.97,0,0,0,0.00
2014-9-13,80.6,72.1,65.8,73.5,65.2,59.1,79,79,79,30.11,30.00,0,0,0,0.00
2014-9-14,74.2,69.3,63.3,67.2,62.5,56.7,79,79,79,30.16,30.10,0,0,0,0.00
2014-9-15,79.7,70.9,65.3,72.6,64.1,58.6,79,79,79,30.16,30.06,0,0,0,0.00
2014-9-16,79.8,71.5,66.4,72.7,64.7,59.7,79,79,79,30.09,29.94,0,0,0,0.00
2014-9-17,77.3,67.7,59.2,70.3,60.9,52.7,79,79,79,29.96,29.85,0,0,0,0.00
2014-9-18,77.1,64.8,55.2,70.1,58.1,48.8,79,79,79,29.99,29.90,0,0,0,0.00
2014-9-19,80.3,64.9,54.8,73.2,58.2,48.4,79,79,79,30.13,29.99,0,0,0,0.00
2014-9-20,79.5,67.3,58.3,72.4,60.5,51.8,79,79,79,30.14,29.99,0,0,0,0.00
2014-9-21,79.1,65.9,54.2,72.0,59.2,47.8,79,79,79,30.04,29.86,0,0,0,0.00
2014-9-22,72.8,62.2,51.6,65.9,55.6,45.3,79,79,79,30.12,29.93,0,0,0,0.00
2014-9-23,73.5,58.6,44.7,66.5,52.1,38.6,79,79,79,30.20,30.12,0,0,0,0.00
2014-9-24,76.6,62.8,53.5,69.6,56.2,47.2,79,79,79,30.25,30.15,0,0,0,0.00
2014-9-25,77.2,64.9,54.2,70.2,58.2,47.9,79,79,79,30.21,30.08,0,0,0,0.00
2014-9-26,78.0,66.2,55.0,71.0,59.5,48.6,79,79,79,30.15,30.06,0,0,0,0.00
2014-9-27,77.6,64.7,54.9,70.6,58.1,48.5,79,79,79,30.16,30.07,0,0,0,0.00
2014-9-28,71.8,62.3,53.2,64.9,55.7,46.9,79,79,79,30.14,30.03,0,0,0,0.00
2014-9-29,71.9,65.2,62.1,65.0,58.5,55.5,79,79,79,30.03,29.90,0,0,0,0.00
2014-9-30,78.1,63.9,55.1,71.1,57.2,48.7,79,79,79,29.94,29.84,0,0,0,0.00
2014-10-1,78.3,61.4,50.9,71.2,54.8,44.6,79,79,79,30.02,29.90,0,0,0,0.00
2014-10-2,80.7,63.3,49.6,73.6,56.7,43.4,79,79,79,30.09,29.96,0,0,0,0.00
2014-10-3,71.4,65.4,60.2,64.6,58.7,53.6,79,79,79,29.99,29.80,0,0,0,0.00
2014-10-4,61.9,51.7,40.2,55.3,45.4,34.2,79,79,79,29.89,29.80,0,0,0,0.00
2014-10-5,64.2,45.5,31.6,57.5,39.4,25.8,79,79,79,29.97,29.86,0,0,0,0.00
2014-10-6,63.5,51.0,40.8,56.9,44.7,34.8,79,79,79,30.00,29.90,0,0,0,0.00
2014-10-7,60.8,57.8,54.0,54.2,51.3,47.6,79,79,79,30.04,29.93,0,0,0,0.00
2014-10-8,60.8,60.8,60.8,54.2,54.2,54.2,79,79,79,30.10,29.99,0,0,0,0.00
2014-10-9,60.8,60.8,60.8,54.2,54.2,54.2,79,79,79,30.13,30.04,0,0,0,0.00
2014-10-10,60.8,60.8,60.8,54.2,54.2,54.2,79,79,79,30.07,29.95,0,0,0,0.00
2014-10-11,60.8,60.8,60.8,54.2,54.2,54.2,79,79,79,30.02,29.93,0,0,0,0.00
2014-10-12,60.8,60.8,60.8,54.2,54.2,54.2,79,79,79,30.07,29.99,0,0,0,0.00
2014-10-13,74.0,66.6,60.8,67.1,59.8,54.2,79,79,79,30.10,29.92,0,0,0,0.00
2014-10-14,72.2,65.7,56.4,65.3,59.0,50.0,79,79,79,29.90,29.67,0,0,0,0.00
2014-10-15,57.6,54.2,51.8,51.2,47.9,45.5,79,79,79,29.84,29.78,0,0,0,0.00
2014-10-16,57.3,53.7,50.3,50.9,47.3,44.0,79,79,79,29.90,29.77,0,0,0,0.00
2014-10-17,72.7,54.1,42.2,65.8,47.8,36.1,79,79,79,29.94,29.82,0,0,0,0.00
2014-10-18,67.0,59.1,50.1,60.3,52.6,43.9,79,79,79,29.98,29.84,0,0,0,0.00
2014-10-19,68.9,57.6,43.8,62.1,51.1,37.7,79,79,79,30.11,29.98,0,0,0,0.00
2014-10-20,68.9,65.2,54.3,62.1,58.5,48.0,79,79,79,30.07,29.93,0,0,0,0.00
2014-10-21,66.9,53.2,43.4,60.1,46.8,37.3,79,79,79,29.98,29.90,0,0,0,0.00
2014-10-22,62.5,50.1,38.4,55.9,43.8,32.5,79,79,79,30.10,29.98,0,0,0,0.00
2014-10-23,64.9,45.4,33.9,58.2,39.2,28.1,79,79,79,30.10,29.95,0,0,0,0.00
2014-10-24,68.0,49.3,38.2,61.3,43.1,32.3,79,79,79,30.04,29.93,0,0,0,0.00
2014-10-25,71.8,49.4,33.1,65.0,43.1,27.3,79,79,79,30.04,29.93,0,0,0,0.00
2014-10-26,77.7,55.1,44.0,70.6,48.7,37.9,79,79,79,30.00,29.92,0,0,0,0.00
2014-10-27,81.0,56.7,39.9,73.9,50.2,33.9,79,79,79,30.08,29.97,0,0,0,0.00
2014-10-28,73.7,57.6,46.1,66.7,51.1,40.0,79,79,79,30.10,30.02,0,0,0,0.00
2014-10-29,59.8,52.8,41.3,53.3,46.5,35.3,79,79,79,30.04,29.95,0,0,0,0.00
2014-10-30,62.9,44.4,32.1,56.3,38.3,26.3,79,79,79,30.03,29.89,0,0,0,0.00
2014-10-31,52.9,40.9,32.0,46.6,34.9,26.2,79,79,79,29.93,29.77,0,0,0,0.00
2014-11-1,37.9,35.4,33.9,31.9,29.5,28.1,79,79,79,30.16,29.79,0,0,0,0.00
2014-11-2,52.0,38.0,28.4,45.6,32.1,22.7,79,79,79,30.33,30.14,0,0,0,0.00
2014-11-3,65.6,41.0,23.3,59.0,35.0,17.8,79,79,79,30.38,30.26,0,0,0,0.00
2014-11-4,68.6,45.6,32.0,61.8,39.5,26.2,79,79,79,30.33,30.16,0,0,0,0.00
2014-11-5,61.8,48.1,38.4,55.2,41.9,32.5,79,79,79,30.24,30.10,0,0,0,0.00
2014-11-6,64.5,55.7,46.5,57.9,49.3,40.3,79,79,79,30.08,29.84,0,0,0,0.00
2014-11-7,57.1,45.4,35.0,50.7,39.3,29.1,79,79,79,30.05,29.91,0,0,0,0.00
2014-11-8,59.5,42.4,29.3,53.0,36.4,23.6,79,79,79,29.97,29.83,0,0,0,0.00
2014-11-9,63.6,44.4,30.6,57.0,38.3,24.9,79,79,79,29.96,29.84,0,0,0,0.00
2014-11-10,69.0,43.6,30.4,62.2,37.5,24.7,79,79,79,30.01,29.91,0,0,0,0.00
2014-11-11,68.3,45.5,29.7,61.5,39.3,24.0,79,79,79,30.02,29.88,0,0,0,0.00
2014-11-12,62.5,51.7,43.0,55.9,45.4,36.9,79,79,79,30.03,29.94,0,0,0,0.00
2014-11-13,43.0,37.6,30.3,36.2,31.6,24.5,79,79,79,30.07,30.00,0,0,0,0.00
2014-11-14,38.6,29.5,22.9,32.6,23.8,17.4,79,79,79,30.19,30.05,0,0,0,0.00
2014-11-15,46.1,29.3,18.4,40.0,23.6,13.0,79,79,79,30.29,30.13,0,0,0,0.00
2014-11-16,49.3,42.5,35.2,43.0,36.4,28.5,79,79,79,30.13,30.13,0,0,0,0.00
2014-11-17,52.2,42.1,24.8,45.8,36.0,19.2,79,79,79,30.13,30.13,0,0,0,0.00
2014-11-18,31.1,23.4,14.9,25.3,17.8,9.6,79,79,79,30.13,30.13,0,0,0,0.00
2014-11-19,15.8,13.9,12.6,10.4,8.6,7.3,79,79,79,30.13,30.13,0,0,0,0.00
2014-11-21,57.2,42.8,28.0,50.7,36.7,22.4,79,79,79,30.13,30.13,0,0,0,0.00
2014-11-22,59.0,39.4,23.2,52.5,33.5,17.6,79,79,79,30.13,30.13,0,0,0,0.00
2014-11-23,59.9,53.2,43.3,53.4,46.9,35.3,79,79,79,30.13,30.13,0,0,0,0.00
2014-11-24,68.7,59.5,44.2,61.9,53.0,38.1,79,79,79,30.13,30.13,0,0,0,0.00
2014-11-25,58.6,44.2,33.1,52.1,38.1,27.3,79,79,79,30.13,30.13,0,0,0,0.00
2014-11-26,51.6,43.1,37.4,45.3,37.0,31.5,79,79,79,30.13,30.13,0,0,0,0.00
2014-11-27,38.3,35.8,31.1,32.4,30.0,25.3,79,79,79,30.13,30.13,0,0,0,0.00
2014-11-28,45.7,32.2,22.5,39.5,26.4,16.9,79,79,79,30.13,30.13,0,0,0,0.00
2014-11-29,50.2,36.6,22.8,43.9,30.7,17.3,79,79,79,30.13,30.13,0,0,0,0.00
2014-11-30,62.8,48.5,38.7,56.2,42.3,32.7,79,79,79,30.13,30.13,0,0,0,0.00
2014-12-1,63.3,49.2,35.8,56.7,43.0,29.9,79,79,79,30.13,30.13,0,0,0,0.00
2014-12-2,63.0,54.2,48.6,56.3,47.8,42.3,79,79,79,30.13,30.13,0,0,0,0.00
2014-12-3,61.0,54.4,49.1,54.4,48.1,42.9,79,79,79,30.13,30.13,0,0,0,0.00
2014-12-4,64.9,51.8,43.3,58.3,45.5,37.3,79,79,79,30.13,30.13,0,0,0,0.00
2014-12-5,60.8,53.2,49.6,54.2,46.8,43.4,79,79,79,30.13,30.13,0,0,0,0.00
2014-12-6,56.3,51.7,46.6,49.9,45.4,40.4,79,79,79,30.13,30.13,0,0,0,0.00
2014-12-7,54.5,42.6,32.4,48.1,36.5,26.6,79,79,79,30.13,30.13,0,0,0,0.00
2014-12-8,49.8,37.4,30.9,43.6,31.5,25.2,79,79,79,30.13,30.13,0,0,0,0.00
2014-12-9,44.2,36.6,30.0,38.1,30.7,24.3,79,79,79,30.13,30.13,0,0,0,0.00
2014-12-10,42.4,36.0,26.1,36.4,30.2,20.4,79,79,79,30.13,30.13,0,0,0,0.00
2014-12-11,46.4,30.5,20.5,40.2,24.8,15.0,79,79,79,30.13,30.13,0,0,0,0.00
2014-12-12,54.9,32.7,18.1,48.5,26.9,12.7,79,79,79,30.13,30.13,0,0,0,0.00
2014-12-13,57.2,34.5,19.2,50.7,28.7,13.8,79,79,79,30.13,30.13,0,0,0,0.00
2014-12-14,46.4,30.8,19.4,40.2,25.0,13.9,79,79,79,30.13,30.13,0,0,0,0.00
2014-12-15,62.6,36.2,19.8,56.0,30.3,14.3,79,79,79,30.13,30.13,0,0,0,0.00
2014-12-16,54.5,46.4,40.8,48.1,40.3,34.8,79,79,79,30.13,30.13,0,0,0,0.00
2014-12-17,50.7,37.0,28.4,44.4,31.0,22.7,79,79,79,30.13,30.13,0,0,0,0.00
2014-12-18,48.4,38.1,29.8,42.2,32.1,24.1,79,79,79,30.13,30.13,0,0,0,0.00
2014-12-19,48.6,36.8,26.1,42.3,30.9,20.4,79,79,79,30.13,30.13,0,0,0,0.00
2014-12-20,44.1,40.7,37.4,38.0,34.7,31.5,79,79,79,30.13,30.13,0,0,0,0.00
2014-12-21,50.5,44.8,41.4,44.3,38.7,35.3,79,79,79,30.13,30.13,0,0,0,0.00
2014-12-22,57.4,48.8,43.3,50.9,42.5,37.3,79,79,79,30.13,30.13,0,0,0,0.00
2014-12-23,60.3,53.1,49.1,53.7,46.7,42.9,79,79,79,30.13,30.13,0,0,0,0.00
2014-12-24,61.2,52.3,42.3,54.6,45.9,36.2,79,79,79,30.13,30.13,0,0,0,0.00
2014-12-25,50.2,40.5,30.9,43.9,34.5,25.2,79,79,79,30.13,30.13,0,0,0,0.00
2014-12-26,57.0,36.5,24.3,50.6,30.6,18.7,79,79,79,30.13,30.13,0,0,0,0.00
2014-12-27,58.8,43.7,31.1,52.3,37.6,25.3,79,79,79,30.13,30.13,0,0,0,0.00
2014-12-28,56.3,50.9,46.4,49.9,44.6,40.2,79,79,79,30.13,30.13,0,0,0,0.00
2014-12-29,56.7,51.5,48.2,50.2,45.2,42.0,79,79,79,30.13,30.13,0,0,0,0.00
2014-12-30,47.5,40.9,33.1,41.3,34.9,27.3,79,79,79,30.13,30.13,0,0,0,0.00
2014-12-31,43.7,34.3,27.3,37.6,28.4,21.7,79,79,79,30.13,30.13,0,0,0,0.00
2015-1-1,43.5,33.4,23.0,37.4,27.6,17.5,79,79,79,30.13,30.13,0,0,0,0.00
2015-1-2,45.7,42.1,38.8,39.5,36.0,32.9,79,79,79,30.13,30.13,0,0,0,0.00